sensor_id;sensor_type;location;lat;lon;timestamp;temperature;humidity
20370;DHT22;10344;47.592;9.600;2024-02-14T00:01:38;4.70;99.90
20370;DHT22;10344;47.592;9.600;2024-02-14T00:04:04;4.70;99.90
20370;DHT22;10344;47.592;9.600;2024-02-14T00:06:35;4.80;99.90
20370;DHT22;10344;47.592;9.600;2024-02-14T00:09:00;4.70;99.90
20370;DHT22;10344;47.592;9.600;2024-02-14T00:11:26;4.80;99.90
20370;DHT22;10344;47.592;9.600;2024-02-14T00:13:51;4.80;99.90
20370;DHT22;10344;47.592;9.600;2024-02-14T00:16:17;4.80;99.90
20370;DHT22;10344;47.592;9.600;2024-02-14T00:18:43;4.80;99.90
20370;DHT22;10344;47.592;9.600;2024-02-14T00:21:08;4.70;99.90
20370;DHT22;10344;47.592;9.600;2024-02-14T00:23:34;4.70;99.90
20370;DHT22;10344;47.592;9.600;2024-02-14T00:26:00;4.70;99.90
20370;DHT22;10344;47.592;9.600;2024-02-14T00:28:26;4.70;99.90
20370;DHT22;10344;47.592;9.600;2024-02-14T00:30:52;4.60;99.90
20370;DHT22;10344;47.592;9.600;2024-02-14T00:33:17;4.60;99.90
20370;DHT22;10344;47.592;9.600;2024-02-14T00:35:45;4.50;99.90
20370;DHT22;10344;47.592;9.600;2024-02-14T00:38:11;4.50;99.90
20370;DHT22;10344;47.592;9.600;2024-02-14T00:40:37;4.50;99.90
20370;DHT22;10344;47.592;9.600;2024-02-14T00:43:02;4.50;99.90
20370;DHT22;10344;47.592;9.600;2024-02-14T00:45:28;4.50;99.90
20370;DHT22;10344;47.592;9.600;2024-02-14T00:47:53;4.40;99.90
20370;DHT22;10344;47.592;9.600;2024-02-14T00:50:19;4.40;99.90
20370;DHT22;10344;47.592;9.600;2024-02-14T00:52:45;4.40;99.90
20370;DHT22;10344;47.592;9.600;2024-02-14T00:55:10;4.30;99.90
20370;DHT22;10344;47.592;9.600;2024-02-14T00:57:36;4.30;99.90
20370;DHT22;10344;47.592;9.600;2024-02-14T01:00:02;4.30;99.90
20370;DHT22;10344;47.592;9.600;2024-02-14T01:02:29;4.30;99.90
20370;DHT22;10344;47.592;9.600;2024-02-14T01:04:55;4.30;99.90
20370;DHT22;10344;47.592;9.600;2024-02-14T01:07:21;4.30;99.90
20370;DHT22;10344;47.592;9.600;2024-02-14T01:09:49;4.30;99.90
20370;DHT22;10344;47.592;9.600;2024-02-14T01:12:15;4.40;99.90
20370;DHT22;10344;47.592;9.600;2024-02-14T01:14:43;4.40;99.90
20370;DHT22;10344;47.592;9.600;2024-02-14T01:17:09;4.40;99.90
20370;DHT22;10344;47.592;9.600;2024-02-14T01:19:34;4.50;99.90
20370;DHT22;10344;47.592;9.600;2024-02-14T01:22:00;4.50;99.90
20370;DHT22;10344;47.592;9.600;2024-02-14T01:24:26;4.50;99.90
20370;DHT22;10344;47.592;9.600;2024-02-14T01:26:53;4.50;99.90
20370;DHT22;10344;47.592;9.600;2024-02-14T01:29:21;4.40;99.90
20370;DHT22;10344;47.592;9.600;2024-02-14T01:31:52;4.40;99.90
20370;DHT22;10344;47.592;9.600;2024-02-14T01:34:17;4.40;99.90
20370;DHT22;10344;47.592;9.600;2024-02-14T01:36:43;4.40;99.90
20370;DHT22;10344;47.592;9.600;2024-02-14T01:39:11;4.40;99.90
20370;DHT22;10344;47.592;9.600;2024-02-14T01:41:43;4.40;99.90
20370;DHT22;10344;47.592;9.600;2024-02-14T01:44:10;4.50;99.90
20370;DHT22;10344;47.592;9.600;2024-02-14T01:46:38;4.60;99.90
20370;DHT22;10344;47.592;9.600;2024-02-14T01:49:04;4.60;99.90
20370;DHT22;10344;47.592;9.600;2024-02-14T01:51:32;4.50;99.90
20370;DHT22;10344;47.592;9.600;2024-02-14T01:54:01;4.50;99.90
20370;DHT22;10344;47.592;9.600;2024-02-14T01:56:29;4.50;99.90
20370;DHT22;10344;47.592;9.600;2024-02-14T01:58:56;4.50;99.90
20370;DHT22;10344;47.592;9.600;2024-02-14T02:01:22;4.70;99.90
20370;DHT22;10344;47.592;9.600;2024-02-14T02:03:49;4.80;99.90
20370;DHT22;10344;47.592;9.600;2024-02-14T02:06:14;4.80;99.90
20370;DHT22;10344;47.592;9.600;2024-02-14T02:08:43;4.80;99.90
20370;DHT22;10344;47.592;9.600;2024-02-14T02:11:09;4.80;99.90
20370;DHT22;10344;47.592;9.600;2024-02-14T02:13:35;4.90;99.90
20370;DHT22;10344;47.592;9.600;2024-02-14T02:16:00;5.10;99.90
20370;DHT22;10344;47.592;9.600;2024-02-14T02:18:31;5.20;99.90
20370;DHT22;10344;47.592;9.600;2024-02-14T02:20:58;5.30;99.90
20370;DHT22;10344;47.592;9.600;2024-02-14T02:23:34;5.30;99.90
20370;DHT22;10344;47.592;9.600;2024-02-14T02:25:59;5.30;99.90
20370;DHT22;10344;47.592;9.600;2024-02-14T02:28:25;5.40;99.90
20370;DHT22;10344;47.592;9.600;2024-02-14T02:30:53;5.40;99.90
20370;DHT22;10344;47.592;9.600;2024-02-14T02:33:21;5.40;99.90
20370;DHT22;10344;47.592;9.600;2024-02-14T02:35:47;5.40;99.90
20370;DHT22;10344;47.592;9.600;2024-02-14T02:38:14;5.40;99.90
20370;DHT22;10344;47.592;9.600;2024-02-14T02:40:39;5.40;99.90
20370;DHT22;10344;47.592;9.600;2024-02-14T02:43:05;5.40;99.90
20370;DHT22;10344;47.592;9.600;2024-02-14T02:45:33;5.30;99.90
20370;DHT22;10344;47.592;9.600;2024-02-14T02:47:59;5.30;99.90
20370;DHT22;10344;47.592;9.600;2024-02-14T02:50:26;5.20;99.90
20370;DHT22;10344;47.592;9.600;2024-02-14T02:52:52;5.30;99.90
20370;DHT22;10344;47.592;9.600;2024-02-14T02:55:20;5.20;99.90
20370;DHT22;10344;47.592;9.600;2024-02-14T02:57:46;5.20;99.90
20370;DHT22;10344;47.592;9.600;2024-02-14T03:00:12;5.20;99.90
20370;DHT22;10344;47.592;9.600;2024-02-14T03:02:43;5.10;99.90
20370;DHT22;10344;47.592;9.600;2024-02-14T03:05:12;5.10;99.90
20370;DHT22;10344;47.592;9.600;2024-02-14T03:07:46;5.10;99.90
20370;DHT22;10344;47.592;9.600;2024-02-14T03:10:14;5.20;99.90
20370;DHT22;10344;47.592;9.600;2024-02-14T03:12:40;5.20;99.90
20370;DHT22;10344;47.592;9.600;2024-02-14T03:15:06;5.10;99.90
20370;DHT22;10344;47.592;9.600;2024-02-14T03:17:35;5.10;99.90
20370;DHT22;10344;47.592;9.600;2024-02-14T03:20:03;5.20;99.90
20370;DHT22;10344;47.592;9.600;2024-02-14T03:22:32;5.40;99.90
20370;DHT22;10344;47.592;9.600;2024-02-14T03:24:58;5.40;99.90
20370;DHT22;10344;47.592;9.600;2024-02-14T03:27:23;5.50;99.90
20370;DHT22;10344;47.592;9.600;2024-02-14T03:29:52;5.50;99.90
20370;DHT22;10344;47.592;9.600;2024-02-14T03:32:17;5.40;99.90
20370;DHT22;10344;47.592;9.600;2024-02-14T03:34:43;5.30;99.90
20370;DHT22;10344;47.592;9.600;2024-02-14T03:37:11;5.40;99.90
20370;DHT22;10344;47.592;9.600;2024-02-14T03:39:37;5.40;99.90
20370;DHT22;10344;47.592;9.600;2024-02-14T03:42:03;5.40;99.90
20370;DHT22;10344;47.592;9.600;2024-02-14T03:44:33;5.40;99.90
20370;DHT22;10344;47.592;9.600;2024-02-14T03:47:03;5.40;99.90
20370;DHT22;10344;47.592;9.600;2024-02-14T03:49:31;5.40;99.90
20370;DHT22;10344;47.592;9.600;2024-02-14T03:51:57;5.40;99.90
20370;DHT22;10344;47.592;9.600;2024-02-14T03:54:23;5.40;99.90
20370;DHT22;10344;47.592;9.600;2024-02-14T03:56:49;5.30;99.90
20370;DHT22;10344;47.592;9.600;2024-02-14T03:59:17;5.30;99.90
20370;DHT22;10344;47.592;9.600;2024-02-14T04:01:52;5.30;99.90
20370;DHT22;10344;47.592;9.600;2024-02-14T04:04:19;5.10;99.90
20370;DHT22;10344;47.592;9.600;2024-02-14T04:06:44;5.10;99.90
20370;DHT22;10344;47.592;9.600;2024-02-14T04:09:13;5.00;99.90
20370;DHT22;10344;47.592;9.600;2024-02-14T04:11:39;4.90;99.90
20370;DHT22;10344;47.592;9.600;2024-02-14T04:14:07;4.90;99.90
20370;DHT22;10344;47.592;9.600;2024-02-14T04:16:33;4.90;99.90
20370;DHT22;10344;47.592;9.600;2024-02-14T04:18:58;4.80;99.90
20370;DHT22;10344;47.592;9.600;2024-02-14T04:21:24;4.80;99.90
20370;DHT22;10344;47.592;9.600;2024-02-14T04:23:50;4.90;99.90
20370;DHT22;10344;47.592;9.600;2024-02-14T04:26:22;4.90;99.90
20370;DHT22;10344;47.592;9.600;2024-02-14T04:28:48;4.80;99.90
20370;DHT22;10344;47.592;9.600;2024-02-14T04:31:14;4.90;99.90
20370;DHT22;10344;47.592;9.600;2024-02-14T04:33:41;4.90;99.90
20370;DHT22;10344;47.592;9.600;2024-02-14T04:36:07;5.00;99.90
20370;DHT22;10344;47.592;9.600;2024-02-14T04:38:33;5.10;99.90
20370;DHT22;10344;47.592;9.600;2024-02-14T04:41:01;5.10;99.90
20370;DHT22;10344;47.592;9.600;2024-02-14T04:43:29;5.10;99.90
20370;DHT22;10344;47.592;9.600;2024-02-14T04:45:56;5.10;99.90
20370;DHT22;10344;47.592;9.600;2024-02-14T04:48:22;5.10;99.90
20370;DHT22;10344;47.592;9.600;2024-02-14T04:50:48;5.10;99.90
20370;DHT22;10344;47.592;9.600;2024-02-14T04:53:14;5.20;99.90
20370;DHT22;10344;47.592;9.600;2024-02-14T04:55:39;5.30;99.90
20370;DHT22;10344;47.592;9.600;2024-02-14T04:58:07;5.50;99.90
20370;DHT22;10344;47.592;9.600;2024-02-14T05:00:32;5.60;99.90
20370;DHT22;10344;47.592;9.600;2024-02-14T05:02:58;5.70;99.90
20370;DHT22;10344;47.592;9.600;2024-02-14T05:05:24;5.70;99.90
20370;DHT22;10344;47.592;9.600;2024-02-14T05:07:52;5.70;99.90
20370;DHT22;10344;47.592;9.600;2024-02-14T05:10:17;5.60;99.90
20370;DHT22;10344;47.592;9.600;2024-02-14T05:12:45;5.60;99.90
20370;DHT22;10344;47.592;9.600;2024-02-14T05:15:15;5.60;99.90
20370;DHT22;10344;47.592;9.600;2024-02-14T05:17:42;5.70;99.90
20370;DHT22;10344;47.592;9.600;2024-02-14T05:20:09;5.70;99.90
20370;DHT22;10344;47.592;9.600;2024-02-14T05:22:36;5.80;99.90
20370;DHT22;10344;47.592;9.600;2024-02-14T05:25:05;5.80;99.90
20370;DHT22;10344;47.592;9.600;2024-02-14T05:27:36;5.80;99.90
20370;DHT22;10344;47.592;9.600;2024-02-14T05:30:02;5.80;99.90
20370;DHT22;10344;47.592;9.600;2024-02-14T05:32:33;5.80;99.90
20370;DHT22;10344;47.592;9.600;2024-02-14T05:35:03;5.70;99.90
20370;DHT22;10344;47.592;9.600;2024-02-14T05:37:31;5.70;99.90
20370;DHT22;10344;47.592;9.600;2024-02-14T05:39:59;5.70;99.90
20370;DHT22;10344;47.592;9.600;2024-02-14T05:42:25;5.70;99.90
20370;DHT22;10344;47.592;9.600;2024-02-14T05:44:53;5.80;99.90
20370;DHT22;10344;47.592;9.600;2024-02-14T05:47:20;5.80;99.90
20370;DHT22;10344;47.592;9.600;2024-02-14T05:49:46;5.80;99.90
20370;DHT22;10344;47.592;9.600;2024-02-14T05:52:12;5.70;99.90
20370;DHT22;10344;47.592;9.600;2024-02-14T05:54:37;5.70;99.90
20370;DHT22;10344;47.592;9.600;2024-02-14T05:57:03;5.70;99.90
20370;DHT22;10344;47.592;9.600;2024-02-14T05:59:32;5.80;99.90
20370;DHT22;10344;47.592;9.600;2024-02-14T06:01:58;5.80;99.90
20370;DHT22;10344;47.592;9.600;2024-02-14T06:04:28;5.80;99.90
20370;DHT22;10344;47.592;9.600;2024-02-14T06:06:53;5.90;99.90
20370;DHT22;10344;47.592;9.600;2024-02-14T06:09:19;5.80;99.90
20370;DHT22;10344;47.592;9.600;2024-02-14T06:11:45;5.90;99.90
20370;DHT22;10344;47.592;9.600;2024-02-14T06:14:10;5.90;99.90
20370;DHT22;10344;47.592;9.600;2024-02-14T06:16:41;5.90;99.90
20370;DHT22;10344;47.592;9.600;2024-02-14T06:19:07;5.90;99.90
20370;DHT22;10344;47.592;9.600;2024-02-14T06:21:36;5.90;99.90
20370;DHT22;10344;47.592;9.600;2024-02-14T06:24:01;5.90;99.90
20370;DHT22;10344;47.592;9.600;2024-02-14T06:26:30;5.90;99.90
20370;DHT22;10344;47.592;9.600;2024-02-14T06:28:55;6.00;99.90
20370;DHT22;10344;47.592;9.600;2024-02-14T06:31:22;6.00;99.90
20370;DHT22;10344;47.592;9.600;2024-02-14T06:33:48;6.00;99.90
20370;DHT22;10344;47.592;9.600;2024-02-14T06:36:13;6.00;99.90
20370;DHT22;10344;47.592;9.600;2024-02-14T06:38:39;6.10;99.90
20370;DHT22;10344;47.592;9.600;2024-02-14T06:41:05;6.20;99.90
20370;DHT22;10344;47.592;9.600;2024-02-14T06:43:33;6.20;99.90
20370;DHT22;10344;47.592;9.600;2024-02-14T06:45:59;6.30;99.90
20370;DHT22;10344;47.592;9.600;2024-02-14T06:48:24;6.40;99.90
20370;DHT22;10344;47.592;9.600;2024-02-14T06:50:50;6.30;99.90
20370;DHT22;10344;47.592;9.600;2024-02-14T06:53:17;6.30;99.90
20370;DHT22;10344;47.592;9.600;2024-02-14T06:55:43;6.30;99.90
20370;DHT22;10344;47.592;9.600;2024-02-14T06:58:08;6.40;99.90
20370;DHT22;10344;47.592;9.600;2024-02-14T07:00:36;6.50;99.90
20370;DHT22;10344;47.592;9.600;2024-02-14T07:03:05;6.40;99.90
20370;DHT22;10344;47.592;9.600;2024-02-14T07:05:30;6.50;99.90
20370;DHT22;10344;47.592;9.600;2024-02-14T07:07:58;6.60;99.90
20370;DHT22;10344;47.592;9.600;2024-02-14T07:10:24;6.60;99.90
20370;DHT22;10344;47.592;9.600;2024-02-14T07:12:50;6.60;99.90
20370;DHT22;10344;47.592;9.600;2024-02-14T07:15:15;6.60;99.90
20370;DHT22;10344;47.592;9.600;2024-02-14T07:17:41;6.60;99.90
20370;DHT22;10344;47.592;9.600;2024-02-14T07:20:07;6.50;99.90
20370;DHT22;10344;47.592;9.600;2024-02-14T07:22:36;6.60;99.90
20370;DHT22;10344;47.592;9.600;2024-02-14T07:25:02;6.60;99.90
20370;DHT22;10344;47.592;9.600;2024-02-14T07:27:27;6.60;99.90
20370;DHT22;10344;47.592;9.600;2024-02-14T07:29:55;6.70;99.90
20370;DHT22;10344;47.592;9.600;2024-02-14T07:32:24;6.60;99.90
20370;DHT22;10344;47.592;9.600;2024-02-14T07:34:49;6.60;99.90
20370;DHT22;10344;47.592;9.600;2024-02-14T07:37:15;6.50;99.90
20370;DHT22;10344;47.592;9.600;2024-02-14T07:39:43;6.60;99.90
20370;DHT22;10344;47.592;9.600;2024-02-14T07:42:09;6.70;99.90
20370;DHT22;10344;47.592;9.600;2024-02-14T07:44:35;6.70;99.90
20370;DHT22;10344;47.592;9.600;2024-02-14T07:47:01;6.80;99.90
20370;DHT22;10344;47.592;9.600;2024-02-14T07:49:27;6.80;99.90
20370;DHT22;10344;47.592;9.600;2024-02-14T07:51:53;6.80;99.90
20370;DHT22;10344;47.592;9.600;2024-02-14T07:54:18;6.80;99.90
20370;DHT22;10344;47.592;9.600;2024-02-14T07:56:44;6.90;99.90
20370;DHT22;10344;47.592;9.600;2024-02-14T07:59:10;7.00;99.90
20370;DHT22;10344;47.592;9.600;2024-02-14T08:01:37;7.10;99.90
20370;DHT22;10344;47.592;9.600;2024-02-14T08:04:02;7.20;99.90
20370;DHT22;10344;47.592;9.600;2024-02-14T08:06:30;7.50;99.90
20370;DHT22;10344;47.592;9.600;2024-02-14T08:08:56;7.70;99.90
20370;DHT22;10344;47.592;9.600;2024-02-14T08:11:27;8.10;99.90
20370;DHT22;10344;47.592;9.600;2024-02-14T08:13:55;9.30;99.90
20370;DHT22;10344;47.592;9.600;2024-02-14T08:16:23;9.80;99.90
20370;DHT22;10344;47.592;9.600;2024-02-14T08:18:49;9.70;99.90
20370;DHT22;10344;47.592;9.600;2024-02-14T08:21:16;10.00;99.90
20370;DHT22;10344;47.592;9.600;2024-02-14T08:23:42;10.40;99.90
20370;DHT22;10344;47.592;9.600;2024-02-14T08:26:08;10.70;99.90
20370;DHT22;10344;47.592;9.600;2024-02-14T08:28:39;10.50;99.90
20370;DHT22;10344;47.592;9.600;2024-02-14T08:31:11;10.10;99.90
20370;DHT22;10344;47.592;9.600;2024-02-14T08:33:37;9.70;99.90
20370;DHT22;10344;47.592;9.600;2024-02-14T08:36:06;9.40;99.90
20370;DHT22;10344;47.592;9.600;2024-02-14T08:38:32;9.00;99.90
20370;DHT22;10344;47.592;9.600;2024-02-14T08:40:58;8.90;99.90
20370;DHT22;10344;47.592;9.600;2024-02-14T08:43:24;8.90;99.90
20370;DHT22;10344;47.592;9.600;2024-02-14T08:45:56;9.00;99.90
20370;DHT22;10344;47.592;9.600;2024-02-14T08:48:23;9.10;99.90
20370;DHT22;10344;47.592;9.600;2024-02-14T08:50:49;9.00;99.90
20370;DHT22;10344;47.592;9.600;2024-02-14T08:53:15;8.80;99.90
20370;DHT22;10344;47.592;9.600;2024-02-14T08:55:41;8.70;99.90
20370;DHT22;10344;47.592;9.600;2024-02-14T08:58:07;8.60;99.90
20370;DHT22;10344;47.592;9.600;2024-02-14T09:00:35;8.60;99.90
20370;DHT22;10344;47.592;9.600;2024-02-14T09:03:05;8.60;99.90
20370;DHT22;10344;47.592;9.600;2024-02-14T09:05:33;8.60;99.90
20370;DHT22;10344;47.592;9.600;2024-02-14T09:08:00;8.60;99.90
20370;DHT22;10344;47.592;9.600;2024-02-14T09:10:25;8.60;99.90
20370;DHT22;10344;47.592;9.600;2024-02-14T09:12:51;8.60;99.90
20370;DHT22;10344;47.592;9.600;2024-02-14T09:15:18;8.70;99.90
20370;DHT22;10344;47.592;9.600;2024-02-14T09:17:45;8.80;99.90
20370;DHT22;10344;47.592;9.600;2024-02-14T09:20:11;8.90;99.90
20370;DHT22;10344;47.592;9.600;2024-02-14T09:22:39;9.00;99.90
20370;DHT22;10344;47.592;9.600;2024-02-14T09:25:07;9.00;99.90
20370;DHT22;10344;47.592;9.600;2024-02-14T09:27:35;9.00;99.90
20370;DHT22;10344;47.592;9.600;2024-02-14T09:30:01;9.00;99.90
20370;DHT22;10344;47.592;9.600;2024-02-14T09:32:32;8.90;99.90
20370;DHT22;10344;47.592;9.600;2024-02-14T09:35:00;9.00;99.90
20370;DHT22;10344;47.592;9.600;2024-02-14T09:37:27;9.10;99.90
20370;DHT22;10344;47.592;9.600;2024-02-14T09:39:53;9.20;99.90
20370;DHT22;10344;47.592;9.600;2024-02-14T09:42:32;9.20;99.90
20370;DHT22;10344;47.592;9.600;2024-02-14T09:45:00;9.30;99.90
20370;DHT22;10344;47.592;9.600;2024-02-14T09:47:30;9.50;99.90
20370;DHT22;10344;47.592;9.600;2024-02-14T09:49:59;9.80;99.90
20370;DHT22;10344;47.592;9.600;2024-02-14T09:52:28;9.90;99.90
20370;DHT22;10344;47.592;9.600;2024-02-14T09:54:55;9.90;99.90
20370;DHT22;10344;47.592;9.600;2024-02-14T09:57:23;9.90;99.90
20370;DHT22;10344;47.592;9.600;2024-02-14T09:59:50;9.90;99.90
20370;DHT22;10344;47.592;9.600;2024-02-14T10:02:19;10.00;99.90
20370;DHT22;10344;47.592;9.600;2024-02-14T10:04:45;10.10;99.90
20370;DHT22;10344;47.592;9.600;2024-02-14T10:07:13;10.30;99.90
20370;DHT22;10344;47.592;9.600;2024-02-14T10:09:43;10.50;99.90
20370;DHT22;10344;47.592;9.600;2024-02-14T10:12:09;10.70;99.90
20370;DHT22;10344;47.592;9.600;2024-02-14T10:14:36;11.10;99.90
20370;DHT22;10344;47.592;9.600;2024-02-14T10:17:05;11.30;99.90
20370;DHT22;10344;47.592;9.600;2024-02-14T10:19:33;11.50;99.90
20370;DHT22;10344;47.592;9.600;2024-02-14T10:22:00;11.50;99.90
20370;DHT22;10344;47.592;9.600;2024-02-14T10:24:28;11.50;99.90
20370;DHT22;10344;47.592;9.600;2024-02-14T10:26:54;11.40;99.90
20370;DHT22;10344;47.592;9.600;2024-02-14T10:29:23;11.20;99.90
20370;DHT22;10344;47.592;9.600;2024-02-14T10:31:50;11.00;99.90
20370;DHT22;10344;47.592;9.600;2024-02-14T10:34:16;10.90;99.90
20370;DHT22;10344;47.592;9.600;2024-02-14T10:36:43;10.80;99.90
20370;DHT22;10344;47.592;9.600;2024-02-14T10:39:11;11.00;99.90
20370;DHT22;10344;47.592;9.600;2024-02-14T10:41:37;11.20;99.90
20370;DHT22;10344;47.592;9.600;2024-02-14T10:44:04;11.20;99.90
20370;DHT22;10344;47.592;9.600;2024-02-14T10:46:36;11.20;99.90
20370;DHT22;10344;47.592;9.600;2024-02-14T10:49:04;11.20;99.90
20370;DHT22;10344;47.592;9.600;2024-02-14T10:51:35;11.20;99.90
20370;DHT22;10344;47.592;9.600;2024-02-14T10:54:04;11.40;99.90
20370;DHT22;10344;47.592;9.600;2024-02-14T10:56:40;11.60;99.90
20370;DHT22;10344;47.592;9.600;2024-02-14T10:59:08;11.90;99.90
20370;DHT22;10344;47.592;9.600;2024-02-14T11:01:39;12.40;99.90
20370;DHT22;10344;47.592;9.600;2024-02-14T11:04:06;12.90;99.90
20370;DHT22;10344;47.592;9.600;2024-02-14T11:06:32;13.20;99.90
20370;DHT22;10344;47.592;9.600;2024-02-14T11:09:11;13.30;99.90
20370;DHT22;10344;47.592;9.600;2024-02-14T11:11:38;13.00;99.90
20370;DHT22;10344;47.592;9.600;2024-02-14T11:14:05;12.90;99.90
20370;DHT22;10344;47.592;9.600;2024-02-14T11:16:31;12.80;99.90
20370;DHT22;10344;47.592;9.600;2024-02-14T11:19:12;12.60;99.90
20370;DHT22;10344;47.592;9.600;2024-02-14T11:21:47;12.30;99.90
20370;DHT22;10344;47.592;9.600;2024-02-14T11:24:15;12.30;99.90
20370;DHT22;10344;47.592;9.600;2024-02-14T11:26:50;12.20;99.90
20370;DHT22;10344;47.592;9.600;2024-02-14T11:29:20;12.20;99.90
20370;DHT22;10344;47.592;9.600;2024-02-14T11:31:46;12.20;99.90
20370;DHT22;10344;47.592;9.600;2024-02-14T11:34:14;12.20;99.90
20370;DHT22;10344;47.592;9.600;2024-02-14T11:36:44;12.20;99.90
20370;DHT22;10344;47.592;9.600;2024-02-14T11:39:13;12.30;99.90
20370;DHT22;10344;47.592;9.600;2024-02-14T11:41:39;12.30;99.90
20370;DHT22;10344;47.592;9.600;2024-02-14T11:44:08;12.30;99.90
20370;DHT22;10344;47.592;9.600;2024-02-14T11:46:37;12.40;99.90
20370;DHT22;10344;47.592;9.600;2024-02-14T11:49:04;12.50;99.90
20370;DHT22;10344;47.592;9.600;2024-02-14T11:51:33;12.60;99.90
20370;DHT22;10344;47.592;9.600;2024-02-14T11:54:00;12.80;99.90
20370;DHT22;10344;47.592;9.600;2024-02-14T11:56:37;12.90;99.90
20370;DHT22;10344;47.592;9.600;2024-02-14T11:59:06;12.90;99.90
20370;DHT22;10344;47.592;9.600;2024-02-14T12:01:37;13.10;99.90
20370;DHT22;10344;47.592;9.600;2024-02-14T12:04:08;13.10;99.90
20370;DHT22;10344;47.592;9.600;2024-02-14T12:06:40;13.30;99.90
20370;DHT22;10344;47.592;9.600;2024-02-14T12:09:09;13.40;99.90
20370;DHT22;10344;47.592;9.600;2024-02-14T12:11:39;13.50;99.90
20370;DHT22;10344;47.592;9.600;2024-02-14T12:14:08;13.40;99.90
20370;DHT22;10344;47.592;9.600;2024-02-14T12:16:37;13.30;99.90
20370;DHT22;10344;47.592;9.600;2024-02-14T12:19:06;13.30;99.90
20370;DHT22;10344;47.592;9.600;2024-02-14T12:21:37;13.40;99.90
20370;DHT22;10344;47.592;9.600;2024-02-14T12:26:33;13.50;99.90
20370;DHT22;10344;47.592;9.600;2024-02-14T12:29:03;13.50;99.90
20370;DHT22;10344;47.592;9.600;2024-02-14T12:31:30;13.60;99.90
20370;DHT22;10344;47.592;9.600;2024-02-14T12:33:57;13.70;99.90
20370;DHT22;10344;47.592;9.600;2024-02-14T12:36:31;13.60;99.90
20370;DHT22;10344;47.592;9.600;2024-02-14T12:38:58;13.50;99.90
20370;DHT22;10344;47.592;9.600;2024-02-14T12:41:24;13.50;99.90
20370;DHT22;10344;47.592;9.600;2024-02-14T12:43:52;13.50;99.90
20370;DHT22;10344;47.592;9.600;2024-02-14T12:46:20;13.50;99.90
20370;DHT22;10344;47.592;9.600;2024-02-14T12:48:46;13.50;99.90
20370;DHT22;10344;47.592;9.600;2024-02-14T12:51:12;13.70;99.90
20370;DHT22;10344;47.592;9.600;2024-02-14T12:53:39;13.70;99.90
20370;DHT22;10344;47.592;9.600;2024-02-14T12:56:05;13.80;99.90
20370;DHT22;10344;47.592;9.600;2024-02-14T12:58:32;13.90;99.90
20370;DHT22;10344;47.592;9.600;2024-02-14T13:00:57;14.00;99.90
20370;DHT22;10344;47.592;9.600;2024-02-14T13:03:24;14.00;99.90
20370;DHT22;10344;47.592;9.600;2024-02-14T13:05:50;14.20;99.90
20370;DHT22;10344;47.592;9.600;2024-02-14T13:08:18;14.30;99.90
20370;DHT22;10344;47.592;9.600;2024-02-14T13:10:44;14.30;99.90
20370;DHT22;10344;47.592;9.600;2024-02-14T13:13:10;14.40;99.90
20370;DHT22;10344;47.592;9.600;2024-02-14T13:15:36;14.30;99.90
20370;DHT22;10344;47.592;9.600;2024-02-14T13:18:02;14.20;99.90
20370;DHT22;10344;47.592;9.600;2024-02-14T13:20:28;14.10;99.90
20370;DHT22;10344;47.592;9.600;2024-02-14T13:22:55;14.10;99.90
20370;DHT22;10344;47.592;9.600;2024-02-14T13:25:21;14.10;99.90
20370;DHT22;10344;47.592;9.600;2024-02-14T13:27:47;14.00;99.90
20370;DHT22;10344;47.592;9.600;2024-02-14T13:30:13;13.80;99.90
20370;DHT22;10344;47.592;9.600;2024-02-14T13:32:41;13.70;99.90
20370;DHT22;10344;47.592;9.600;2024-02-14T13:35:08;13.80;99.90
20370;DHT22;10344;47.592;9.600;2024-02-14T13:37:34;13.90;99.90
20370;DHT22;10344;47.592;9.600;2024-02-14T13:40:00;13.90;99.90
20370;DHT22;10344;47.592;9.600;2024-02-14T13:42:34;13.90;99.90
20370;DHT22;10344;47.592;9.600;2024-02-14T13:44:59;13.80;99.90
20370;DHT22;10344;47.592;9.600;2024-02-14T13:47:25;13.80;99.90
20370;DHT22;10344;47.592;9.600;2024-02-14T13:49:51;13.80;99.90
20370;DHT22;10344;47.592;9.600;2024-02-14T13:52:19;13.70;99.90
20370;DHT22;10344;47.592;9.600;2024-02-14T13:54:47;13.90;99.90
20370;DHT22;10344;47.592;9.600;2024-02-14T13:57:12;13.90;99.90
20370;DHT22;10344;47.592;9.600;2024-02-14T13:59:38;13.90;99.90
20370;DHT22;10344;47.592;9.600;2024-02-14T14:02:04;13.80;99.90
20370;DHT22;10344;47.592;9.600;2024-02-14T14:04:30;13.80;99.90
20370;DHT22;10344;47.592;9.600;2024-02-14T14:06:55;13.80;99.90
20370;DHT22;10344;47.592;9.600;2024-02-14T14:09:25;14.00;99.90
20370;DHT22;10344;47.592;9.600;2024-02-14T14:11:52;14.10;99.90
20370;DHT22;10344;47.592;9.600;2024-02-14T14:14:20;14.30;99.90
20370;DHT22;10344;47.592;9.600;2024-02-14T14:16:46;14.30;99.90
20370;DHT22;10344;47.592;9.600;2024-02-14T14:19:12;14.30;99.90
20370;DHT22;10344;47.592;9.600;2024-02-14T14:21:39;14.40;99.90
20370;DHT22;10344;47.592;9.600;2024-02-14T14:24:04;14.30;99.90
20370;DHT22;10344;47.592;9.600;2024-02-14T14:26:32;14.30;99.90
20370;DHT22;10344;47.592;9.600;2024-02-14T14:28:58;14.10;99.90
20370;DHT22;10344;47.592;9.600;2024-02-14T14:31:24;14.00;99.90
20370;DHT22;10344;47.592;9.600;2024-02-14T14:33:50;14.10;99.90
20370;DHT22;10344;47.592;9.600;2024-02-14T14:36:18;14.00;99.90
20370;DHT22;10344;47.592;9.600;2024-02-14T14:38:45;13.90;99.90
20370;DHT22;10344;47.592;9.600;2024-02-14T14:41:14;13.70;99.90
20370;DHT22;10344;47.592;9.600;2024-02-14T14:43:40;13.50;99.90
20370;DHT22;10344;47.592;9.600;2024-02-14T14:46:06;13.50;99.90
20370;DHT22;10344;47.592;9.600;2024-02-14T14:48:32;13.40;99.90
20370;DHT22;10344;47.592;9.600;2024-02-14T14:50:57;13.40;99.90
20370;DHT22;10344;47.592;9.600;2024-02-14T14:53:23;13.40;99.90
20370;DHT22;10344;47.592;9.600;2024-02-14T14:55:51;13.40;99.90
20370;DHT22;10344;47.592;9.600;2024-02-14T14:58:20;13.20;99.90
20370;DHT22;10344;47.592;9.600;2024-02-14T15:00:49;12.90;99.90
20370;DHT22;10344;47.592;9.600;2024-02-14T15:03:14;12.90;99.90
20370;DHT22;10344;47.592;9.600;2024-02-14T15:05:42;12.70;99.90
20370;DHT22;10344;47.592;9.600;2024-02-14T15:08:08;12.50;99.90
20370;DHT22;10344;47.592;9.600;2024-02-14T15:10:34;12.50;99.90
20370;DHT22;10344;47.592;9.600;2024-02-14T15:13:00;12.50;99.90
20370;DHT22;10344;47.592;9.600;2024-02-14T15:15:26;12.40;99.90
20370;DHT22;10344;47.592;9.600;2024-02-14T15:17:52;12.30;99.90
20370;DHT22;10344;47.592;9.600;2024-02-14T15:20:18;12.20;99.90
20370;DHT22;10344;47.592;9.600;2024-02-14T15:22:44;12.20;99.90
20370;DHT22;10344;47.592;9.600;2024-02-14T15:25:14;12.10;99.90
20370;DHT22;10344;47.592;9.600;2024-02-14T15:27:40;11.90;99.90
20370;DHT22;10344;47.592;9.600;2024-02-14T15:30:10;11.90;99.90
20370;DHT22;10344;47.592;9.600;2024-02-14T15:32:54;11.90;99.90
20370;DHT22;10344;47.592;9.600;2024-02-14T15:35:41;12.00;99.90
20370;DHT22;10344;47.592;9.600;2024-02-14T15:38:07;11.90;99.90
20370;DHT22;10344;47.592;9.600;2024-02-14T15:40:33;11.70;99.90
20370;DHT22;10344;47.592;9.600;2024-02-14T15:43:00;11.40;99.90